Aidamar — ICSJ — position and weather

sailwx.info

Track history (hours):
 
Tides and Currents Weather Stations Pressure Air Temp Water Temp Dewpoint Dewpoint Depression Visibility Wind Speed Wind Dir Waves Ship Positions

Aidamar

Last reported at 2017-Jan-09 18:03 UTC. Time now 2017-Jan-17 19:17 UTC.
Position N 17°38' W 066°49'.
Warning: this ship's position is 8 days out of date.

Length 253 m; draft 7.3 m.

Type: Passenger vessel. MMSI: 247312900.

Date/timePositionNaut miles runAvg speedWind from/ knotsBaromVisibWave heightAir tempDewpointWater temp
2017-Jan-09 18:03N 17°38' W 066°49'815.0
2017-Jan-09 17:31N 17°37' W 066°41'1915.0
2017-Jan-09 16:14N 17°33' W 066°21'23014.7
2017-Jan-09 00:33N 16°59' W 062°23'1414.1
2017-Jan-08 23:34N 17°06' W 062°11'1515.0
2017-Jan-08 22:34N 17°09' W 061°55'4 4.2
2017-Jan-08 21:32N 17°07' W 061°51'0 0.0
2017-Jan-08 20:32N 17°07' W 061°51'0 0.0
2017-Jan-08 19:32N 17°07' W 061°51'0 0.0
2017-Jan-08 18:32N 17°07' W 061°51'0 0.0
2017-Jan-08 17:32N 17°07' W 061°51'0 0.0
2017-Jan-08 16:33N 17°07' W 061°51'0 0.0
2017-Jan-08 15:32N 17°07' W 061°51'0 0.0
2017-Jan-08 14:32N 17°07' W 061°51'0 0.0
2017-Jan-08 13:32N 17°07' W 061°51'0 0.0
2017-Jan-08 12:32N 17°07' W 061°51'0 0.0
2017-Jan-08 11:34N 17°07' W 061°51'6 5.7
2017-Jan-08 10:33N 17°09' W 061°56'10 9.7
2017-Jan-08 09:33N 17°18' W 062°02'7 7.4
2017-Jan-08 08:33N 17°25' W 062°00'7 7.0
2017-Jan-08 07:33N 17°31' W 062°03'4 4.1
2017-Jan-08 06:34N 17°35' W 062°04'6 5.6
2017-Jan-08 05:33N 17°40' W 062°07'1312.5
2017-Jan-08 04:30N 17°42' W 062°20'132 4.5
2017-Jan-06 23:29N 18°22' W 064°32'5 0.6
2017-Jan-06 14:22N 18°25' W 064°37'2 1.0
2017-Jan-06 12:32N 18°25' W 064°35'7 6.8
2017-Jan-06 11:33N 18°31' W 064°33'1414.3
2017-Jan-06 10:33N 18°35' W 064°48'  
Track history (hours):
 
Tides and Currents Weather Stations Pressure Air Temp Water Temp Dewpoint Dewpoint Depression Visibility Wind Speed Wind Dir Waves Ship Positions

Aidamar

Last reported at 2017-Jan-09 18:03 UTC. Time now 2017-Jan-17 19:17 UTC.
Position N 17°38' W 066°49'.
Warning: this ship's position is 8 days out of date.

Length 253 m; draft 7.3 m.

Type: Passenger vessel. MMSI: 247312900.

Date/timePositionNaut miles runAvg speedWind from/ knotsBaromVisibWave heightAir tempDewpointWater temp
2017-Jan-09 18:03N 17°38' W 066°49'815.0
2017-Jan-09 17:31N 17°37' W 066°41'1915.0
2017-Jan-09 16:14N 17°33' W 066°21'23014.7
2017-Jan-09 00:33N 16°59' W 062°23'1414.1
2017-Jan-08 23:34N 17°06' W 062°11'1515.0
2017-Jan-08 22:34N 17°09' W 061°55'4 4.2
2017-Jan-08 21:32N 17°07' W 061°51'0 0.0
2017-Jan-08 20:32N 17°07' W 061°51'0 0.0
2017-Jan-08 19:32N 17°07' W 061°51'0 0.0
2017-Jan-08 18:32N 17°07' W 061°51'0 0.0
2017-Jan-08 17:32N 17°07' W 061°51'0 0.0
2017-Jan-08 16:33N 17°07' W 061°51'0 0.0
2017-Jan-08 15:32N 17°07' W 061°51'0 0.0
2017-Jan-08 14:32N 17°07' W 061°51'0 0.0
2017-Jan-08 13:32N 17°07' W 061°51'0 0.0
2017-Jan-08 12:32N 17°07' W 061°51'0 0.0
2017-Jan-08 11:34N 17°07' W 061°51'6 5.7
2017-Jan-08 10:33N 17°09' W 061°56'10 9.7
2017-Jan-08 09:33N 17°18' W 062°02'7 7.4
2017-Jan-08 08:33N 17°25' W 062°00'7 7.0
2017-Jan-08 07:33N 17°31' W 062°03'4 4.1
2017-Jan-08 06:34N 17°35' W 062°04'6 5.6
2017-Jan-08 05:33N 17°40' W 062°07'1312.5
2017-Jan-08 04:30N 17°42' W 062°20'132 4.5
2017-Jan-06 23:29N 18°22' W 064°32'5 0.6
2017-Jan-06 14:22N 18°25' W 064°37'2 1.0
2017-Jan-06 12:32N 18°25' W 064°35'7 6.8
2017-Jan-06 11:33N 18°31' W 064°33'1414.3
2017-Jan-06 10:33N 18°35' W 064°48'  

Dump ship's entire track history